createdAt,value
2022-08-19T00:01:31.765Z,4.10
2022-08-19T00:04:01.310Z,3.75
2022-08-19T00:06:30.898Z,4.00
2022-08-19T00:09:01.115Z,4.65
2022-08-19T00:11:31.252Z,4.50
2022-08-19T00:13:59.894Z,3.97
2022-08-19T00:16:28.441Z,3.70
2022-08-19T00:18:57.145Z,3.70
2022-08-19T00:21:27.633Z,3.83
2022-08-19T00:23:56.278Z,3.63
2022-08-19T00:26:24.211Z,4.07
2022-08-19T00:28:53.709Z,4.30
2022-08-19T00:31:22.159Z,4.22
2022-08-19T00:33:51.412Z,3.58
2022-08-19T00:36:19.683Z,3.80
2022-08-19T00:38:48.405Z,3.72
2022-08-19T00:41:18.417Z,3.45
2022-08-19T00:44:01.266Z,3.35
2022-08-19T00:46:29.840Z,3.83
2022-08-19T00:48:59.096Z,4.47
2022-08-19T00:51:27.660Z,3.58
2022-08-19T00:53:57.227Z,3.97
2022-08-19T00:56:27.920Z,3.65
2022-08-19T00:58:58.521Z,3.10
2022-08-19T01:01:28.350Z,3.90
2022-08-19T01:03:58.402Z,3.50
2022-08-19T01:06:27.273Z,3.92
2022-08-19T01:08:56.548Z,4.07
2022-08-19T01:11:24.749Z,3.75
2022-08-19T01:13:54.423Z,4.50
2022-08-19T01:16:25.931Z,4.10
2022-08-19T01:18:58.180Z,4.15
2022-08-19T01:21:34.199Z,4.63
2022-08-19T01:24:04.750Z,3.38
2022-08-19T01:26:32.903Z,3.75
2022-08-19T01:29:02.031Z,3.33
2022-08-19T01:31:32.715Z,2.80
2022-08-19T01:34:04.630Z,3.80
2022-08-19T01:36:36.087Z,4.60
2022-08-19T01:39:12.589Z,4.10
2022-08-19T01:41:42.019Z,3.47
2022-08-19T01:44:17.591Z,4.35
2022-08-19T01:46:50.536Z,4.88
2022-08-19T01:49:20.693Z,4.38
2022-08-19T01:51:50.517Z,4.22
2022-08-19T01:54:23.394Z,3.17
2022-08-19T01:57:02.451Z,3.72
2022-08-19T01:59:33.030Z,5.00
2022-08-19T02:02:03.162Z,3.92
2022-08-19T02:04:33.386Z,4.18
2022-08-19T02:07:03.123Z,4.47
2022-08-19T02:09:34.397Z,4.75
2022-08-19T02:12:02.841Z,5.50
2022-08-19T02:14:30.758Z,4.57
2022-08-19T02:16:58.801Z,4.15
2022-08-19T02:19:26.830Z,3.92
2022-08-19T02:21:54.898Z,4.43
2022-08-19T02:24:22.879Z,5.68
2022-08-19T02:26:52.262Z,5.22
2022-08-19T02:29:20.275Z,5.30
2022-08-19T02:31:48.272Z,4.30
2022-08-19T02:34:16.362Z,3.70
2022-08-19T02:36:44.473Z,4.85
2022-08-19T02:39:19.098Z,5.10
2022-08-19T02:41:47.107Z,3.90
2022-08-19T02:44:29.219Z,4.55
2022-08-19T02:47:00.092Z,3.95
2022-08-19T02:49:28.013Z,4.07
2022-08-19T02:51:56.185Z,4.10
2022-08-19T02:54:24.379Z,4.10
2022-08-19T02:56:52.455Z,3.65
2022-08-19T02:59:22.977Z,3.35
2022-08-19T03:01:51.565Z,3.80
2022-08-19T03:04:20.315Z,3.83
2022-08-19T03:06:49.785Z,3.38
2022-08-19T03:09:18.976Z,3.60
2022-08-19T03:11:47.452Z,3.95
2022-08-19T03:14:19.022Z,3.83
2022-08-19T03:16:54.170Z,4.68
2022-08-19T03:19:23.303Z,3.78
2022-08-19T03:21:52.368Z,4.22
2022-08-19T03:24:21.382Z,3.65
2022-08-19T03:26:52.209Z,4.15
2022-08-19T03:29:30.945Z,4.32
2022-08-19T03:32:04.844Z,3.40
2022-08-19T03:39:37.864Z,3.50
2022-08-19T03:42:32.808Z,4.43
2022-08-19T03:44:55.200Z,4.68
2022-08-19T03:47:24.632Z,5.13
2022-08-19T03:49:52.716Z,3.38
2022-08-19T03:52:20.676Z,3.97
2022-08-19T03:54:48.612Z,3.97
2022-08-19T03:57:16.540Z,3.97
2022-08-19T03:59:45.082Z,4.07
2022-08-19T04:02:14.101Z,4.18
2022-08-19T04:04:45.540Z,4.78
2022-08-19T04:07:16.791Z,4.38
2022-08-19T04:09:45.308Z,3.67
2022-08-19T04:12:13.596Z,3.60
2022-08-19T04:14:45.581Z,4.68
2022-08-19T04:17:18.742Z,4.25
2022-08-19T04:19:48.765Z,4.43
2022-08-19T04:22:18.217Z,2.97
2022-08-19T04:24:48.629Z,3.22
2022-08-19T04:27:19.392Z,3.88
2022-08-19T04:29:48.869Z,2.83
2022-08-19T04:32:18.202Z,5.65
2022-08-19T04:35:02.460Z,3.25
2022-08-19T04:37:41.430Z,2.97
2022-08-19T04:40:28.979Z,5.10
2022-08-19T04:42:57.825Z,3.80
2022-08-19T04:45:26.097Z,3.97
2022-08-19T04:48:19.592Z,3.95
2022-08-19T04:50:49.743Z,4.25
2022-08-19T04:53:19.183Z,5.00
2022-08-19T04:55:48.073Z,4.85
2022-08-19T04:58:17.753Z,3.90
2022-08-19T05:00:46.519Z,4.43
2022-08-19T05:03:18.289Z,5.00
2022-08-19T05:05:50.455Z,5.50
2022-08-19T05:08:31.331Z,5.30
2022-08-19T05:11:00.704Z,6.22
2022-08-19T05:13:29.020Z,6.03
2022-08-19T05:16:02.055Z,7.10
2022-08-19T05:18:48.932Z,7.43
2022-08-19T05:21:38.892Z,7.82
2022-08-19T05:24:11.046Z,9.23
2022-08-19T05:26:44.324Z,10.52
2022-08-19T05:29:13.481Z,9.73
2022-08-19T05:31:43.804Z,9.60
2022-08-19T05:34:18.301Z,9.77
2022-08-19T05:36:59.194Z,10.70
2022-08-19T05:39:39.052Z,10.30
2022-08-19T05:42:15.489Z,10.40
2022-08-19T05:44:49.018Z,10.32
2022-08-19T05:47:21.037Z,10.40
2022-08-19T05:49:52.515Z,10.67
2022-08-19T05:52:26.561Z,11.05
2022-08-19T05:54:58.790Z,9.25
2022-08-19T05:57:30.328Z,11.38
2022-08-19T06:00:03.786Z,10.43
2022-08-19T06:02:40.788Z,10.70
2022-08-19T06:05:10.384Z,10.60
2022-08-19T06:07:43.092Z,10.32
2022-08-19T06:10:13.024Z,10.60
2022-08-19T06:12:41.268Z,10.40
2022-08-19T06:15:12.221Z,10.68
2022-08-19T06:17:40.676Z,9.95
2022-08-19T06:20:14.549Z,10.70
2022-08-19T06:22:47.770Z,10.00
2022-08-19T06:25:18.492Z,10.20
2022-08-19T06:28:14.134Z,8.88
2022-08-19T06:30:39.977Z,8.63
2022-08-19T06:33:09.666Z,8.25
2022-08-19T06:38:14.734Z,8.82
2022-08-19T06:43:12.219Z,9.32
2022-08-19T06:45:44.127Z,9.00
2022-08-19T06:48:17.261Z,9.63
2022-08-19T06:53:22.745Z,8.07
2022-08-19T06:56:02.486Z,7.78
2022-08-19T06:58:34.759Z,8.35
2022-08-19T07:01:09.103Z,8.65
2022-08-19T07:03:41.675Z,8.40
2022-08-19T07:06:39.413Z,8.45
2022-08-19T07:09:06.340Z,8.77
2022-08-19T07:11:38.015Z,8.93
2022-08-19T07:14:19.178Z,7.82
2022-08-19T07:16:50.436Z,9.05
2022-08-19T07:19:22.610Z,8.63
2022-08-19T07:21:54.894Z,8.20
2022-08-19T07:24:33.504Z,10.55
2022-08-19T07:27:06.820Z,9.32
2022-08-19T07:29:47.229Z,8.15
2022-08-19T07:32:28.037Z,8.70
2022-08-19T07:35:02.019Z,8.82
2022-08-19T07:37:34.625Z,10.52
2022-08-19T07:40:08.079Z,10.02
2022-08-19T07:42:36.255Z,10.10
2022-08-19T07:45:07.778Z,9.85
2022-08-19T07:47:58.758Z,9.80
2022-08-19T07:50:29.853Z,9.48
2022-08-19T07:52:59.499Z,9.75
2022-08-19T07:55:40.610Z,10.23
2022-08-19T07:58:18.551Z,10.00
2022-08-19T08:00:53.782Z,10.35
2022-08-19T08:03:47.299Z,8.57
2022-08-19T08:06:37.779Z,9.57
2022-08-19T08:11:55.170Z,9.70
2022-08-19T08:14:35.274Z,9.65
2022-08-19T08:17:13.550Z,11.48
2022-08-19T08:19:46.688Z,10.00
2022-08-19T08:22:42.874Z,9.50
2022-08-19T08:25:17.929Z,9.85
2022-08-19T08:27:55.317Z,10.10
2022-08-19T08:30:34.720Z,8.02
2022-08-19T08:33:08.237Z,7.15
2022-08-19T08:38:12.252Z,8.88
2022-08-19T08:40:48.153Z,8.77
2022-08-19T08:43:32.204Z,10.15
2022-08-19T08:46:07.494Z,11.20
2022-08-19T08:48:45.087Z,11.45
2022-08-19T08:51:22.251Z,10.13
2022-08-19T08:53:55.933Z,12.25
2022-08-19T08:59:09.646Z,10.77
2022-08-19T09:01:39.677Z,10.85
2022-08-19T09:04:12.805Z,10.23
2022-08-19T09:06:53.530Z,10.30
2022-08-19T09:09:33.384Z,9.35
2022-08-19T09:12:11.870Z,11.65
2022-08-19T09:14:51.488Z,9.10
2022-08-19T09:17:21.990Z,11.75
2022-08-19T09:19:56.177Z,9.90
2022-08-19T09:22:25.690Z,11.35
2022-08-19T09:24:54.908Z,11.75
2022-08-19T09:27:42.347Z,12.43
2022-08-19T09:30:19.103Z,9.95
2022-08-19T09:32:52.865Z,11.02
2022-08-19T09:35:23.282Z,12.43
2022-08-19T09:37:57.837Z,11.68
2022-08-19T09:40:30.067Z,10.70
2022-08-19T09:43:05.727Z,10.43
2022-08-19T09:45:40.004Z,9.60
2022-08-19T09:48:09.480Z,11.25
2022-08-19T09:50:51.549Z,9.82
2022-08-19T09:53:25.609Z,9.80
2022-08-19T09:55:53.921Z,9.63
2022-08-19T09:58:26.659Z,10.63
2022-08-19T10:00:56.404Z,10.27
2022-08-19T10:03:25.564Z,11.60
2022-08-19T10:06:00.653Z,10.52
2022-08-19T10:08:32.355Z,10.02
2022-08-19T10:11:02.441Z,12.10
2022-08-19T10:13:54.345Z,11.07
2022-08-19T10:16:30.123Z,10.32
2022-08-19T10:18:59.728Z,10.90
2022-08-19T10:21:40.455Z,11.55
2022-08-19T10:24:19.386Z,11.48
2022-08-19T10:26:55.844Z,11.80
2022-08-19T10:29:32.643Z,11.20
2022-08-19T10:32:09.799Z,12.48
2022-08-19T10:34:48.897Z,13.43
2022-08-19T10:37:23.959Z,10.63
2022-08-19T10:40:00.604Z,11.18
2022-08-19T10:42:32.550Z,11.55
2022-08-19T10:45:04.980Z,11.93
2022-08-19T10:50:25.682Z,11.98
2022-08-19T10:52:58.956Z,13.70
2022-08-19T10:55:46.487Z,13.10
2022-08-19T10:58:19.702Z,13.95
2022-08-19T11:00:57.076Z,11.50
2022-08-19T11:03:31.644Z,11.05
2022-08-19T11:06:21.496Z,12.15
2022-08-19T11:08:51.644Z,14.23
2022-08-19T11:11:20.769Z,12.80
2022-08-19T11:13:50.860Z,12.65
2022-08-19T11:16:24.538Z,14.90
2022-08-19T11:19:00.513Z,11.32
2022-08-19T11:21:33.979Z,9.48
2022-08-19T11:24:05.590Z,11.40
2022-08-19T11:26:38.277Z,10.52
2022-08-19T11:34:18.389Z,11.18
2022-08-19T11:36:51.650Z,12.23
2022-08-19T11:39:22.726Z,13.55
2022-08-19T11:41:53.105Z,13.57
2022-08-19T11:44:23.774Z,11.85
2022-08-19T11:46:54.103Z,12.07
2022-08-19T11:49:27.160Z,12.50
2022-08-19T11:51:59.838Z,11.05
2022-08-19T11:54:31.030Z,11.82
2022-08-19T11:57:02.553Z,11.27
2022-08-19T11:59:31.625Z,11.27
2022-08-19T12:02:00.236Z,10.32
2022-08-19T12:04:30.727Z,9.65
2022-08-19T12:06:59.353Z,9.93
2022-08-19T12:09:30.994Z,11.25
2022-08-19T12:12:03.642Z,12.20
2022-08-19T12:14:33.073Z,9.75
2022-08-19T12:17:01.119Z,8.63
2022-08-19T12:19:30.596Z,9.57
2022-08-19T12:22:08.692Z,9.57
2022-08-19T12:24:43.757Z,9.43
2022-08-19T12:27:32.198Z,10.23
2022-08-19T12:30:17.562Z,9.13
2022-08-19T12:32:48.338Z,9.88
2022-08-19T12:35:18.757Z,9.55
2022-08-19T12:37:56.742Z,10.43
2022-08-19T12:40:28.294Z,11.02
2022-08-19T12:42:57.711Z,10.48
2022-08-19T12:45:25.823Z,11.02
2022-08-19T12:47:56.401Z,10.00
2022-08-19T12:50:27.685Z,8.68
2022-08-19T12:52:58.379Z,8.82
2022-08-19T12:58:02.416Z,10.82
2022-08-19T13:00:34.632Z,9.45
2022-08-19T13:03:04.356Z,10.55
2022-08-19T13:05:36.878Z,9.75
2022-08-19T13:08:06.473Z,9.45
2022-08-19T13:10:39.601Z,9.13
2022-08-19T13:13:11.487Z,10.70
2022-08-19T13:15:42.051Z,13.15
2022-08-19T13:18:12.025Z,13.10
2022-08-19T13:20:43.100Z,14.30
2022-08-19T13:23:22.719Z,14.43
2022-08-19T13:25:59.915Z,13.52
2022-08-19T13:28:48.617Z,12.80
2022-08-19T13:31:36.335Z,14.57
2022-08-19T13:34:06.830Z,11.10
2022-08-19T13:36:39.986Z,11.07
2022-08-19T13:39:11.604Z,10.80
2022-08-19T13:41:49.270Z,10.00
2022-08-19T13:44:19.658Z,10.73
2022-08-19T13:46:55.384Z,10.90
2022-08-19T13:49:25.628Z,13.82
2022-08-19T13:51:57.984Z,10.90
2022-08-19T13:54:28.756Z,12.20
2022-08-19T13:57:00.457Z,10.68
2022-08-19T13:59:32.447Z,10.70
2022-08-19T14:02:01.924Z,10.20
2022-08-19T14:04:32.668Z,9.15
2022-08-19T14:07:04.078Z,9.82
2022-08-19T14:09:34.543Z,7.00
2022-08-19T14:12:02.795Z,7.22
2022-08-19T14:14:32.942Z,6.07
2022-08-19T14:17:02.317Z,6.18
2022-08-19T14:19:30.461Z,6.72
2022-08-19T14:22:01.463Z,8.43
2022-08-19T14:24:34.243Z,10.73
2022-08-19T14:27:04.443Z,10.10
2022-08-19T14:29:33.516Z,11.75
2022-08-19T14:32:05.067Z,11.38
2022-08-19T14:34:34.805Z,10.63
2022-08-19T14:37:05.236Z,10.63
2022-08-19T14:39:34.989Z,13.50
2022-08-19T14:42:05.284Z,11.13
2022-08-19T14:44:36.321Z,11.32
2022-08-19T14:47:07.961Z,11.65
2022-08-19T14:49:43.064Z,12.00
2022-08-19T14:52:15.483Z,12.02
2022-08-19T14:54:45.483Z,13.07
2022-08-19T14:57:16.861Z,12.25
2022-08-19T14:59:48.696Z,12.20
2022-08-19T15:02:33.750Z,12.45
2022-08-19T15:05:05.321Z,13.07
2022-08-19T15:07:34.417Z,10.98
2022-08-19T15:10:08.322Z,12.00
2022-08-19T15:12:41.082Z,12.85
2022-08-19T15:15:10.503Z,11.15
2022-08-19T15:17:46.181Z,11.88
2022-08-19T15:20:17.037Z,10.50
2022-08-19T15:22:48.287Z,10.35
2022-08-19T15:25:21.341Z,12.43
2022-08-19T15:27:52.184Z,12.15
2022-08-19T15:30:26.186Z,9.65
2022-08-19T15:32:57.557Z,9.63
2022-08-19T15:35:29.908Z,8.40
2022-08-19T15:38:01.274Z,7.70
2022-08-19T15:40:32.018Z,8.80
2022-08-19T15:43:03.247Z,8.90
2022-08-19T15:45:33.960Z,9.63
2022-08-19T15:48:05.140Z,8.20
2022-08-19T15:50:33.626Z,11.23
2022-08-19T15:53:07.963Z,9.60
2022-08-19T15:55:44.402Z,8.75
2022-08-19T15:58:33.171Z,10.48
2022-08-19T16:01:27.210Z,9.45
2022-08-19T16:04:16.936Z,11.70
2022-08-19T16:06:49.506Z,10.43
2022-08-19T16:09:27.020Z,12.85
2022-08-19T16:12:01.652Z,11.48
2022-08-19T16:14:32.505Z,11.10
2022-08-19T16:17:02.135Z,12.35
2022-08-19T16:19:32.539Z,12.00
2022-08-19T16:22:00.738Z,10.95
2022-08-19T16:24:30.177Z,11.32
2022-08-19T16:27:00.669Z,9.32
2022-08-19T16:29:33.666Z,9.43
2022-08-19T16:32:03.094Z,10.15
2022-08-19T16:34:32.083Z,9.43
2022-08-19T16:37:01.746Z,10.43
2022-08-19T16:39:30.895Z,8.73
2022-08-19T16:42:01.011Z,8.93
2022-08-19T16:44:30.034Z,7.65
2022-08-19T16:46:59.898Z,8.98
2022-08-19T16:49:54.504Z,8.95
2022-08-19T16:52:16.635Z,8.10
2022-08-19T16:54:44.979Z,8.23
2022-08-19T16:57:14.797Z,6.97
2022-08-19T16:59:48.955Z,6.00
2022-08-19T17:02:18.456Z,6.95
2022-08-19T17:04:48.307Z,8.10
2022-08-19T17:07:28.101Z,8.10
2022-08-19T17:09:56.831Z,8.25
2022-08-19T17:12:32.125Z,8.23
2022-08-19T17:15:02.724Z,9.98
2022-08-19T17:17:33.753Z,9.43
2022-08-19T17:20:03.937Z,10.00
2022-08-19T17:22:33.420Z,9.57
2022-08-19T17:25:05.549Z,8.57
2022-08-19T17:27:37.500Z,9.77
2022-08-19T17:30:07.276Z,10.57
2022-08-19T17:32:36.644Z,10.02
2022-08-19T17:35:09.120Z,9.20
2022-08-19T17:37:40.668Z,9.02
2022-08-19T17:40:11.821Z,8.27
2022-08-19T17:42:43.064Z,10.07
2022-08-19T17:45:14.900Z,8.35
2022-08-19T17:47:45.612Z,7.28
2022-08-19T17:50:16.790Z,8.77
2022-08-19T17:52:52.674Z,8.73
2022-08-19T17:55:24.805Z,9.55
2022-08-19T17:57:57.729Z,11.63
2022-08-19T18:03:02.189Z,9.02
2022-08-19T18:05:33.989Z,8.65
2022-08-19T18:08:04.148Z,13.63
2022-08-19T18:10:35.372Z,12.05
2022-08-19T18:13:10.071Z,13.52
2022-08-19T18:15:47.609Z,12.93
2022-08-19T18:18:17.510Z,12.40
2022-08-19T18:20:48.280Z,10.75
2022-08-19T18:23:44.279Z,11.07
2022-08-19T18:26:12.509Z,12.02
2022-08-19T18:28:50.037Z,11.77
2022-08-19T18:31:20.356Z,12.65
2022-08-19T18:33:53.270Z,11.10
2022-08-19T18:36:51.893Z,11.45
2022-08-19T18:39:32.258Z,12.02
2022-08-19T18:42:20.429Z,11.90
2022-08-19T18:45:09.212Z,11.60
2022-08-19T18:48:05.532Z,10.68
2022-08-19T18:50:40.580Z,8.52
2022-08-19T18:53:11.840Z,8.43
2022-08-19T18:55:42.952Z,8.55
2022-08-19T18:58:13.924Z,7.22
2022-08-19T19:00:44.145Z,7.00
2022-08-19T19:03:12.616Z,8.10
2022-08-19T19:05:42.677Z,6.78
2022-08-19T19:08:13.782Z,7.45
2022-08-19T19:10:42.812Z,7.93
2022-08-19T19:13:16.485Z,6.93
2022-08-19T19:15:50.373Z,7.45
2022-08-19T19:18:19.388Z,6.07
2022-08-19T19:20:47.242Z,7.57
2022-08-19T19:23:15.895Z,6.32
2022-08-19T19:25:50.303Z,7.18
2022-08-19T19:28:25.388Z,6.88
2022-08-19T19:30:57.571Z,7.22
2022-08-19T19:33:26.037Z,7.25
2022-08-19T19:35:54.172Z,7.38
2022-08-19T19:38:23.404Z,5.95
2022-08-19T19:40:52.696Z,7.70
2022-08-19T19:43:23.401Z,7.20
2022-08-19T19:45:52.701Z,7.18
2022-08-19T19:48:25.352Z,6.90
2022-08-19T19:50:56.417Z,7.57
2022-08-19T19:53:27.025Z,7.95
2022-08-19T19:56:00.110Z,7.82
2022-08-19T19:58:32.422Z,6.82
2022-08-19T20:01:09.396Z,7.35
2022-08-19T20:03:42.763Z,7.53
2022-08-19T20:09:01.720Z,6.30
2022-08-19T20:11:36.770Z,7.95
2022-08-19T20:14:08.761Z,7.63
2022-08-19T20:16:41.054Z,8.20
2022-08-19T20:19:15.407Z,7.50
2022-08-19T20:21:51.423Z,7.90
2022-08-19T20:24:24.770Z,8.13
2022-08-19T20:26:55.761Z,7.28
2022-08-19T20:29:38.322Z,6.90
2022-08-19T20:32:11.483Z,7.22
2022-08-19T20:34:45.364Z,6.90
2022-08-19T20:37:16.542Z,7.78
2022-08-19T20:39:46.888Z,7.05
2022-08-19T20:42:17.619Z,7.50
2022-08-19T20:44:48.673Z,7.40
2022-08-19T20:47:22.360Z,8.38
2022-08-19T20:49:54.698Z,8.02
2022-08-19T20:52:24.854Z,8.55
2022-08-19T20:54:54.796Z,9.02
2022-08-19T20:57:25.279Z,9.00
2022-08-19T20:59:55.796Z,8.27
2022-08-19T21:02:25.829Z,7.50
2022-08-19T21:05:00.059Z,9.20
2022-08-19T21:07:39.267Z,9.23
2022-08-19T21:10:12.079Z,8.95
2022-08-19T21:12:44.099Z,9.77
2022-08-19T21:15:13.655Z,9.43
2022-08-19T21:17:43.291Z,8.20
2022-08-19T21:20:15.578Z,9.70
2022-08-19T21:22:47.930Z,9.65
2022-08-19T21:25:20.068Z,9.27
2022-08-19T21:27:51.468Z,10.75
2022-08-19T21:30:23.597Z,9.25
2022-08-19T21:32:54.859Z,8.77
2022-08-19T21:35:27.209Z,9.63
2022-08-19T21:37:58.028Z,8.30
2022-08-19T21:40:30.536Z,8.20
2022-08-19T21:43:02.953Z,8.90
2022-08-19T21:45:33.697Z,8.45
2022-08-19T21:48:03.742Z,8.55
2022-08-19T21:50:37.311Z,8.30
2022-08-19T21:53:08.408Z,9.02
2022-08-19T21:55:42.939Z,7.70
2022-08-19T21:58:15.202Z,7.40
2022-08-19T22:00:43.827Z,8.38
2022-08-19T22:03:15.421Z,7.28
2022-08-19T22:05:48.159Z,8.13
2022-08-19T22:08:18.619Z,8.40
2022-08-19T22:10:46.842Z,6.88
2022-08-19T22:13:17.434Z,8.02
2022-08-19T22:15:45.720Z,7.15
2022-08-19T22:18:15.017Z,8.00
2022-08-19T22:20:42.989Z,7.80
2022-08-19T22:23:12.333Z,6.65
2022-08-19T22:25:44.047Z,8.32
2022-08-19T22:28:18.845Z,7.35
2022-08-19T22:30:51.100Z,7.28
2022-08-19T22:33:21.229Z,7.35
2022-08-19T22:35:49.861Z,7.78
2022-08-19T22:38:19.370Z,5.93
2022-08-19T22:40:49.464Z,5.78
2022-08-19T22:43:20.300Z,6.03
2022-08-19T22:45:50.535Z,7.47
2022-08-19T22:48:21.240Z,6.60
2022-08-19T22:51:04.004Z,6.35
2022-08-19T22:53:34.355Z,7.23
2022-08-19T22:56:02.998Z,7.80
2022-08-19T22:58:31.014Z,6.45
2022-08-19T23:00:59.131Z,6.57
2022-08-19T23:03:27.649Z,6.80
2022-08-19T23:05:56.482Z,6.43
2022-08-19T23:08:25.220Z,6.63
2022-08-19T23:10:54.481Z,6.13
2022-08-19T23:13:22.584Z,6.00
2022-08-19T23:15:51.033Z,5.72
2022-08-19T23:18:20.199Z,5.85
2022-08-19T23:20:48.501Z,6.50
2022-08-19T23:23:19.821Z,6.03
2022-08-19T23:25:50.053Z,6.13
2022-08-19T23:28:37.956Z,6.20
2022-08-19T23:31:07.018Z,5.68
2022-08-19T23:33:50.821Z,5.03
2022-08-19T23:36:23.368Z,6.03
2022-08-19T23:38:54.623Z,6.22
2022-08-19T23:41:27.806Z,5.43
2022-08-19T23:44:01.775Z,6.22
2022-08-19T23:46:32.229Z,5.20
2022-08-19T23:49:16.106Z,4.95
2022-08-19T23:51:45.476Z,5.72
2022-08-19T23:54:14.101Z,5.97
2022-08-19T23:56:42.196Z,4.53
2022-08-19T23:59:13.831Z,4.97
